Enfield, Illinois
Current Conditions -  °F | °C
As of 7:35 AM on Saturday 01 Nov 2014 (Local Time) from KCUL Reporting Station
Clear Clear  
Wind Chill: 24°   Ceiling: Unl
Heat Index: 32°   Visibility: 10mi
Dew Point: 27°   Wind: 10mph
Humidity: 83%   Direction: 320°NW
Pressure: 30.36"   Gusts: NA
Location:  38.1°N, 88.34°W
Report Text: KCUL 011235Z AUTO 32009KT 10SM CLR 00/M03 A3036 RMK AO2 T00001026
Loading
Personal Weather Stations






























Interactive Weather Map
Tropical Storm Tracking
New forecast layout! Learn more

10-Day Weather Forecast

Advertisements
Track Severe Weather on mobile